sensor_id;sensor_type;location;lat;lon;timestamp;pressure;altitude;pressure_sealevel;temperature;humidity
32197;BME280;18697;42.770;23.400;2023-02-13T00:00:48;97418.38;;;2.03;61.68
32197;BME280;18697;42.770;23.400;2023-02-13T00:03:13;97412.31;;;1.94;61.92
32197;BME280;18697;42.770;23.400;2023-02-13T00:05:39;97409.59;;;1.94;62.17
32197;BME280;18697;42.770;23.400;2023-02-13T00:08:04;97425.06;;;2.06;62.12
32197;BME280;18697;42.770;23.400;2023-02-13T00:10:30;97425.00;;;2.02;61.66
32197;BME280;18697;42.770;23.400;2023-02-13T00:12:55;97415.31;;;1.85;62.03
32197;BME280;18697;42.770;23.400;2023-02-13T00:15:20;97429.06;;;1.89;62.64
32197;BME280;18697;42.770;23.400;2023-02-13T00:17:46;97436.38;;;1.81;63.28
32197;BME280;18697;42.770;23.400;2023-02-13T00:20:11;97434.34;;;1.78;63.34
32197;BME280;18697;42.770;23.400;2023-02-13T00:22:37;97424.63;;;1.61;64.39
32197;BME280;18697;42.770;23.400;2023-02-13T00:25:04;97429.34;;;1.42;65.95
32197;BME280;18697;42.770;23.400;2023-02-13T00:27:30;97429.84;;;1.47;65.98
32197;BME280;18697;42.770;23.400;2023-02-13T00:29:55;97433.44;;;1.51;65.88
32197;BME280;18697;42.770;23.400;2023-02-13T00:32:21;97434.00;;;1.60;66.68
32197;BME280;18697;42.770;23.400;2023-02-13T00:34:46;97436.09;;;1.67;66.43
32197;BME280;18697;42.770;23.400;2023-02-13T00:37:12;97437.09;;;1.59;66.58
32197;BME280;18697;42.770;23.400;2023-02-13T00:39:37;97441.63;;;1.71;66.73
32197;BME280;18697;42.770;23.400;2023-02-13T00:42:02;97439.16;;;1.85;66.45
32197;BME280;18697;42.770;23.400;2023-02-13T00:44:28;97441.13;;;1.84;66.18
32197;BME280;18697;42.770;23.400;2023-02-13T00:46:53;97440.91;;;1.74;67.00
32197;BME280;18697;42.770;23.400;2023-02-13T00:49:19;97439.03;;;1.78;66.99
32197;BME280;18697;42.770;23.400;2023-02-13T00:51:44;97434.91;;;1.87;66.58
32197;BME280;18697;42.770;23.400;2023-02-13T00:54:09;97440.31;;;1.84;65.96
32197;BME280;18697;42.770;23.400;2023-02-13T00:56:35;97448.28;;;1.70;66.47
32197;BME280;18697;42.770;23.400;2023-02-13T00:59:00;97436.16;;;1.71;66.70
32197;BME280;18697;42.770;23.400;2023-02-13T01:01:26;97447.47;;;1.69;67.14
32197;BME280;18697;42.770;23.400;2023-02-13T01:03:51;97441.19;;;1.88;66.57
32197;BME280;18697;42.770;23.400;2023-02-13T01:06:16;97439.38;;;1.95;66.08
32197;BME280;18697;42.770;23.400;2023-02-13T01:08:42;97432.81;;;2.00;66.04
32197;BME280;18697;42.770;23.400;2023-02-13T01:11:08;97437.97;;;2.05;65.70
32197;BME280;18697;42.770;23.400;2023-02-13T01:13:33;97435.78;;;1.91;65.24
32197;BME280;18697;42.770;23.400;2023-02-13T01:15:59;97442.66;;;2.05;64.79
32197;BME280;18697;42.770;23.400;2023-02-13T01:18:24;97441.50;;;2.06;64.68
32197;BME280;18697;42.770;23.400;2023-02-13T01:21:07;97455.84;;;2.18;64.11
32197;BME280;18697;42.770;23.400;2023-02-13T01:23:35;97448.78;;;2.17;64.32
32197;BME280;18697;42.770;23.400;2023-02-13T01:26:05;97448.59;;;2.07;63.87
32197;BME280;18697;42.770;23.400;2023-02-13T01:28:31;97443.09;;;2.07;64.06
32197;BME280;18697;42.770;23.400;2023-02-13T01:30:57;97452.47;;;2.06;63.86
32197;BME280;18697;42.770;23.400;2023-02-13T01:33:24;97453.22;;;2.03;63.97
32197;BME280;18697;42.770;23.400;2023-02-13T01:35:50;97458.63;;;1.99;63.65
32197;BME280;18697;42.770;23.400;2023-02-13T01:38:16;97452.28;;;1.95;63.52
32197;BME280;18697;42.770;23.400;2023-02-13T01:40:50;97449.84;;;1.90;64.03
32197;BME280;18697;42.770;23.400;2023-02-13T01:43:16;97459.06;;;1.82;64.10
32197;BME280;18697;42.770;23.400;2023-02-13T01:45:43;97454.19;;;1.72;64.61
32197;BME280;18697;42.770;23.400;2023-02-13T01:48:16;97461.03;;;1.62;64.74
32197;BME280;18697;42.770;23.400;2023-02-13T01:50:47;97457.34;;;1.74;65.09
32197;BME280;18697;42.770;23.400;2023-02-13T01:53:24;97465.78;;;1.84;64.86
32197;BME280;18697;42.770;23.400;2023-02-13T01:55:57;97455.38;;;1.93;64.48
32197;BME280;18697;42.770;23.400;2023-02-13T01:58:28;97455.88;;;1.99;64.53
32197;BME280;18697;42.770;23.400;2023-02-13T02:00:56;97456.25;;;1.97;64.66
32197;BME280;18697;42.770;23.400;2023-02-13T02:03:42;97455.09;;;1.98;64.51
32197;BME280;18697;42.770;23.400;2023-02-13T02:06:13;97458.44;;;1.69;64.96
32197;BME280;18697;42.770;23.400;2023-02-13T02:08:41;97463.91;;;1.69;65.25
32197;BME280;18697;42.770;23.400;2023-02-13T02:11:16;97461.91;;;1.66;65.66
32197;BME280;18697;42.770;23.400;2023-02-13T02:13:45;97459.16;;;1.66;66.05
32197;BME280;18697;42.770;23.400;2023-02-13T02:16:10;97457.34;;;1.74;65.96
32197;BME280;18697;42.770;23.400;2023-02-13T02:18:36;97452.66;;;1.74;65.94
32197;BME280;18697;42.770;23.400;2023-02-13T02:24:15;97468.38;;;1.77;66.01
32197;BME280;18697;42.770;23.400;2023-02-13T02:38:13;97476.75;;;1.84;65.61
32197;BME280;18697;42.770;23.400;2023-02-13T02:44:19;97486.03;;;1.99;65.34
32197;BME280;18697;42.770;23.400;2023-02-13T02:46:57;97496.28;;;2.02;65.46
32197;BME280;18697;42.770;23.400;2023-02-13T02:49:49;97497.06;;;2.03;65.23
32197;BME280;18697;42.770;23.400;2023-02-13T02:52:40;97501.03;;;1.86;64.71
32197;BME280;18697;42.770;23.400;2023-02-13T02:55:31;97497.88;;;1.84;65.01
32197;BME280;18697;42.770;23.400;2023-02-13T02:58:02;97489.78;;;1.72;64.76
32197;BME280;18697;42.770;23.400;2023-02-13T03:00:49;97489.88;;;1.75;64.92
32197;BME280;18697;42.770;23.400;2023-02-13T03:03:33;97486.19;;;1.68;64.53
32197;BME280;18697;42.770;23.400;2023-02-13T03:06:23;97492.41;;;1.64;65.28
32197;BME280;18697;42.770;23.400;2023-02-13T03:08:57;97479.06;;;1.63;65.33
32197;BME280;18697;42.770;23.400;2023-02-13T03:11:45;97487.28;;;1.63;65.28
32197;BME280;18697;42.770;23.400;2023-02-13T03:14:31;97483.47;;;1.68;65.30
32197;BME280;18697;42.770;23.400;2023-02-13T03:16:57;97482.44;;;1.76;65.03
32197;BME280;18697;42.770;23.400;2023-02-13T03:23:07;97481.09;;;1.47;65.68
32197;BME280;18697;42.770;23.400;2023-02-13T03:25:35;97488.38;;;1.39;66.04
32197;BME280;18697;42.770;23.400;2023-02-13T03:31:05;97490.16;;;1.31;66.64
32197;BME280;18697;42.770;23.400;2023-02-13T03:33:55;97480.72;;;1.29;65.80
32197;BME280;18697;42.770;23.400;2023-02-13T03:42:16;97485.75;;;1.27;65.37
32197;BME280;18697;42.770;23.400;2023-02-13T03:44:53;97493.25;;;1.30;65.34
32197;BME280;18697;42.770;23.400;2023-02-13T03:47:42;97495.63;;;1.31;64.99
32197;BME280;18697;42.770;23.400;2023-02-13T03:50:09;97502.59;;;0.94;66.68
32197;BME280;18697;42.770;23.400;2023-02-13T03:52:44;97502.06;;;1.04;66.48
32197;BME280;18697;42.770;23.400;2023-02-13T03:55:21;97497.75;;;1.03;66.11
32197;BME280;18697;42.770;23.400;2023-02-13T03:58:10;97497.31;;;0.85;66.96
32197;BME280;18697;42.770;23.400;2023-02-13T04:00:59;97498.72;;;0.95;66.60
32197;BME280;18697;42.770;23.400;2023-02-13T04:06:00;97501.91;;;0.81;66.72
32197;BME280;18697;42.770;23.400;2023-02-13T04:08:28;97503.66;;;0.89;66.69
32197;BME280;18697;42.770;23.400;2023-02-13T04:11:13;97498.53;;;1.04;65.99
32197;BME280;18697;42.770;23.400;2023-02-13T04:16:23;97506.50;;;0.93;65.92
32197;BME280;18697;42.770;23.400;2023-02-13T04:18:53;97514.00;;;0.96;65.98
32197;BME280;18697;42.770;23.400;2023-02-13T04:21:20;97518.22;;;0.93;65.88
32197;BME280;18697;42.770;23.400;2023-02-13T04:23:45;97505.44;;;0.97;65.95
32197;BME280;18697;42.770;23.400;2023-02-13T04:26:16;97504.13;;;0.91;66.29
32197;BME280;18697;42.770;23.400;2023-02-13T04:28:42;97500.16;;;0.89;66.22
32197;BME280;18697;42.770;23.400;2023-02-13T04:31:07;97503.31;;;0.91;66.86
32197;BME280;18697;42.770;23.400;2023-02-13T04:33:33;97484.59;;;0.93;66.80
32197;BME280;18697;42.770;23.400;2023-02-13T04:35:58;97489.44;;;0.99;66.66
32197;BME280;18697;42.770;23.400;2023-02-13T04:38:24;97495.78;;;1.04;66.75
32197;BME280;18697;42.770;23.400;2023-02-13T04:40:49;97496.75;;;1.11;66.50
32197;BME280;18697;42.770;23.400;2023-02-13T04:43:14;97505.19;;;1.22;65.34
32197;BME280;18697;42.770;23.400;2023-02-13T04:45:40;97509.38;;;1.16;64.16
32197;BME280;18697;42.770;23.400;2023-02-13T04:48:05;97504.69;;;1.16;64.00
32197;BME280;18697;42.770;23.400;2023-02-13T04:50:30;97509.81;;;1.18;63.02
32197;BME280;18697;42.770;23.400;2023-02-13T04:52:56;97507.06;;;1.18;62.13
32197;BME280;18697;42.770;23.400;2023-02-13T04:55:26;97507.69;;;1.11;61.52
32197;BME280;18697;42.770;23.400;2023-02-13T04:57:55;97508.69;;;1.03;61.23
32197;BME280;18697;42.770;23.400;2023-02-13T05:00:22;97512.84;;;0.97;60.75
32197;BME280;18697;42.770;23.400;2023-02-13T05:02:48;97510.56;;;0.83;60.43
32197;BME280;18697;42.770;23.400;2023-02-13T05:05:14;97516.47;;;0.85;61.04
32197;BME280;18697;42.770;23.400;2023-02-13T05:07:41;97518.34;;;0.81;61.45
32197;BME280;18697;42.770;23.400;2023-02-13T05:10:08;97521.41;;;0.80;61.59
32197;BME280;18697;42.770;23.400;2023-02-13T05:12:33;97523.59;;;1.41;69.43
32197;BME280;18697;42.770;23.400;2023-02-13T05:14:59;97521.94;;;3.35;66.71
32197;BME280;18697;42.770;23.400;2023-02-13T05:17:24;97525.13;;;2.84;58.96
32197;BME280;18697;42.770;23.400;2023-02-13T05:19:49;97523.44;;;3.28;63.59
32197;BME280;18697;42.770;23.400;2023-02-13T05:22:15;97519.44;;;5.01;56.83
32197;BME280;18697;42.770;23.400;2023-02-13T05:24:59;97535.88;;;3.79;52.39
32197;BME280;18697;42.770;23.400;2023-02-13T05:27:24;97533.84;;;3.16;53.96
32197;BME280;18697;42.770;23.400;2023-02-13T05:29:49;97521.03;;;2.74;55.37
32197;BME280;18697;42.770;23.400;2023-02-13T05:32:15;97523.78;;;2.51;55.92
32197;BME280;18697;42.770;23.400;2023-02-13T05:34:40;97530.28;;;2.20;56.92
32197;BME280;18697;42.770;23.400;2023-02-13T05:37:05;97537.38;;;1.83;58.09
32197;BME280;18697;42.770;23.400;2023-02-13T05:39:31;97539.41;;;1.47;59.88
32197;BME280;18697;42.770;23.400;2023-02-13T05:41:56;97540.22;;;1.32;60.59
32197;BME280;18697;42.770;23.400;2023-02-13T05:44:21;97537.34;;;1.25;60.70
32197;BME280;18697;42.770;23.400;2023-02-13T05:46:47;97553.34;;;1.07;59.42
32197;BME280;18697;42.770;23.400;2023-02-13T05:49:14;97563.50;;;1.07;59.20
32197;BME280;18697;42.770;23.400;2023-02-13T05:51:40;97556.16;;;1.11;59.39
32197;BME280;18697;42.770;23.400;2023-02-13T05:54:06;97552.38;;;0.99;60.05
32197;BME280;18697;42.770;23.400;2023-02-13T05:56:32;97558.56;;;0.96;60.78
32197;BME280;18697;42.770;23.400;2023-02-13T05:58:57;97553.38;;;0.91;61.98
32197;BME280;18697;42.770;23.400;2023-02-13T06:01:24;97557.41;;;0.97;62.31
32197;BME280;18697;42.770;23.400;2023-02-13T06:03:49;97550.88;;;1.02;61.50
32197;BME280;18697;42.770;23.400;2023-02-13T06:06:15;97559.44;;;1.16;60.78
32197;BME280;18697;42.770;23.400;2023-02-13T06:08:42;97571.78;;;1.26;60.02
32197;BME280;18697;42.770;23.400;2023-02-13T06:11:07;97565.25;;;1.15;59.47
32197;BME280;18697;42.770;23.400;2023-02-13T06:13:33;97558.56;;;0.96;60.73
32197;BME280;18697;42.770;23.400;2023-02-13T06:15:58;97572.50;;;1.07;60.37
32197;BME280;18697;42.770;23.400;2023-02-13T06:18:24;97578.59;;;1.01;60.43
32197;BME280;18697;42.770;23.400;2023-02-13T06:20:49;97576.31;;;1.03;60.46
32197;BME280;18697;42.770;23.400;2023-02-13T06:23:15;97572.41;;;1.04;60.79
32197;BME280;18697;42.770;23.400;2023-02-13T06:25:40;97574.44;;;1.07;60.88
32197;BME280;18697;42.770;23.400;2023-02-13T06:28:06;97575.00;;;0.96;60.93
32197;BME280;18697;42.770;23.400;2023-02-13T06:30:31;97580.19;;;1.02;61.05
32197;BME280;18697;42.770;23.400;2023-02-13T06:32:57;97577.63;;;1.09;61.18
32197;BME280;18697;42.770;23.400;2023-02-13T06:35:23;97570.28;;;1.13;61.34
32197;BME280;18697;42.770;23.400;2023-02-13T06:37:49;97584.75;;;1.29;61.60
32197;BME280;18697;42.770;23.400;2023-02-13T06:40:15;97577.69;;;1.28;62.05
32197;BME280;18697;42.770;23.400;2023-02-13T06:42:41;97582.84;;;1.14;62.88
32197;BME280;18697;42.770;23.400;2023-02-13T06:45:07;97584.59;;;0.90;63.96
32197;BME280;18697;42.770;23.400;2023-02-13T06:47:33;97586.28;;;0.95;64.54
32197;BME280;18697;42.770;23.400;2023-02-13T06:49:58;97586.38;;;0.83;65.32
32197;BME280;18697;42.770;23.400;2023-02-13T06:52:24;97589.63;;;0.88;66.91
32197;BME280;18697;42.770;23.400;2023-02-13T06:54:49;97577.91;;;1.04;67.45
32197;BME280;18697;42.770;23.400;2023-02-13T06:57:15;97578.03;;;1.26;67.11
32197;BME280;18697;42.770;23.400;2023-02-13T06:59:40;97586.00;;;1.51;66.55
32197;BME280;18697;42.770;23.400;2023-02-13T07:02:11;97582.28;;;1.59;66.52
32197;BME280;18697;42.770;23.400;2023-02-13T07:04:36;97582.91;;;1.87;66.39
32197;BME280;18697;42.770;23.400;2023-02-13T07:07:02;97575.84;;;2.06;65.79
32197;BME280;18697;42.770;23.400;2023-02-13T07:09:30;97577.44;;;2.29;65.28
32197;BME280;18697;42.770;23.400;2023-02-13T07:11:55;97583.28;;;2.47;64.93
32197;BME280;18697;42.770;23.400;2023-02-13T07:14:21;97591.97;;;2.72;64.27
32197;BME280;18697;42.770;23.400;2023-02-13T07:16:46;97589.16;;;2.91;63.61
32197;BME280;18697;42.770;23.400;2023-02-13T07:19:11;97588.06;;;3.22;62.47
32197;BME280;18697;42.770;23.400;2023-02-13T07:21:37;97596.34;;;3.49;61.91
32197;BME280;18697;42.770;23.400;2023-02-13T07:24:03;97592.34;;;3.73;60.67
32197;BME280;18697;42.770;23.400;2023-02-13T07:26:28;97588.72;;;3.95;60.50
32197;BME280;18697;42.770;23.400;2023-02-13T07:28:54;97585.44;;;4.16;59.48
32197;BME280;18697;42.770;23.400;2023-02-13T07:31:19;97577.41;;;4.34;59.84
32197;BME280;18697;42.770;23.400;2023-02-13T07:33:47;97576.94;;;4.65;59.19
32197;BME280;18697;42.770;23.400;2023-02-13T07:36:13;97581.75;;;4.75;58.67
32197;BME280;18697;42.770;23.400;2023-02-13T07:38:38;97578.06;;;5.01;58.27
32197;BME280;18697;42.770;23.400;2023-02-13T07:41:04;97582.84;;;5.08;58.51
32197;BME280;18697;42.770;23.400;2023-02-13T07:43:29;97575.88;;;5.24;58.22
32197;BME280;18697;42.770;23.400;2023-02-13T07:46:02;97567.75;;;5.46;58.09
32197;BME280;18697;42.770;23.400;2023-02-13T07:48:28;97573.34;;;5.56;57.41
32197;BME280;18697;42.770;23.400;2023-02-13T07:51:02;97572.78;;;5.95;57.31
32197;BME280;18697;42.770;23.400;2023-02-13T07:53:28;97576.06;;;6.25;56.78
32197;BME280;18697;42.770;23.400;2023-02-13T07:55:53;97579.69;;;6.47;56.17
32197;BME280;18697;42.770;23.400;2023-02-13T07:58:20;97583.69;;;6.75;55.38
32197;BME280;18697;42.770;23.400;2023-02-13T08:00:45;97574.63;;;6.85;55.12
32197;BME280;18697;42.770;23.400;2023-02-13T08:03:10;97572.66;;;6.85;55.66
32197;BME280;18697;42.770;23.400;2023-02-13T08:05:36;97576.63;;;7.06;55.41
32197;BME280;18697;42.770;23.400;2023-02-13T08:08:02;97568.75;;;7.22;53.65
32197;BME280;18697;42.770;23.400;2023-02-13T08:10:27;97564.38;;;7.46;53.50
32197;BME280;18697;42.770;23.400;2023-02-13T08:13:12;97563.53;;;7.81;52.36
32197;BME280;18697;42.770;23.400;2023-02-13T08:15:38;97570.59;;;7.96;52.60
32197;BME280;18697;42.770;23.400;2023-02-13T08:18:04;97557.44;;;8.21;52.43
32197;BME280;18697;42.770;23.400;2023-02-13T08:20:30;97564.31;;;7.78;52.56
32197;BME280;18697;42.770;23.400;2023-02-13T08:23:04;97562.28;;;8.03;51.86
32197;BME280;18697;42.770;23.400;2023-02-13T08:25:31;97547.50;;;8.38;51.48
32197;BME280;18697;42.770;23.400;2023-02-13T08:27:58;97564.50;;;8.44;52.28
32197;BME280;18697;42.770;23.400;2023-02-13T08:30:23;97569.16;;;8.61;51.28
32197;BME280;18697;42.770;23.400;2023-02-13T08:32:49;97572.00;;;8.47;51.36
32197;BME280;18697;42.770;23.400;2023-02-13T08:35:14;97559.81;;;8.19;52.01
32197;BME280;18697;42.770;23.400;2023-02-13T08:37:39;97566.47;;;8.43;49.40
32197;BME280;18697;42.770;23.400;2023-02-13T08:40:05;97566.13;;;8.34;49.79
32197;BME280;18697;42.770;23.400;2023-02-13T08:42:35;97558.19;;;8.40;50.59
32197;BME280;18697;42.770;23.400;2023-02-13T08:45:00;97566.06;;;8.45;50.94
32197;BME280;18697;42.770;23.400;2023-02-13T08:47:26;97557.50;;;8.11;51.50
32197;BME280;18697;42.770;23.400;2023-02-13T08:49:51;97556.91;;;8.59;50.35
32197;BME280;18697;42.770;23.400;2023-02-13T08:52:16;97554.06;;;7.71;51.52
32197;BME280;18697;42.770;23.400;2023-02-13T08:54:42;97556.03;;;7.71;51.22
32197;BME280;18697;42.770;23.400;2023-02-13T08:57:07;97552.88;;;7.76;51.48
32197;BME280;18697;42.770;23.400;2023-02-13T08:59:32;97550.53;;;7.53;52.20
32197;BME280;18697;42.770;23.400;2023-02-13T09:01:58;97560.03;;;6.91;53.69
32197;BME280;18697;42.770;23.400;2023-02-13T09:04:23;97555.69;;;6.80;55.96
32197;BME280;18697;42.770;23.400;2023-02-13T09:06:49;97549.78;;;7.06;54.21
32197;BME280;18697;42.770;23.400;2023-02-13T09:09:14;97553.72;;;6.80;56.06
32197;BME280;18697;42.770;23.400;2023-02-13T09:11:40;97559.63;;;6.65;56.46
32197;BME280;18697;42.770;23.400;2023-02-13T09:14:05;97563.78;;;6.05;56.92
32197;BME280;18697;42.770;23.400;2023-02-13T09:16:30;97554.22;;;5.85;57.34
32197;BME280;18697;42.770;23.400;2023-02-13T09:18:56;97560.38;;;6.44;56.42
32197;BME280;18697;42.770;23.400;2023-02-13T09:21:22;97546.56;;;6.44;56.34
32197;BME280;18697;42.770;23.400;2023-02-13T09:23:48;97550.84;;;6.27;56.46
32197;BME280;18697;42.770;23.400;2023-02-13T09:26:16;97550.91;;;6.48;56.38
32197;BME280;18697;42.770;23.400;2023-02-13T09:28:42;97545.50;;;5.76;57.56
32197;BME280;18697;42.770;23.400;2023-02-13T09:31:12;97559.88;;;6.13;57.06
32197;BME280;18697;42.770;23.400;2023-02-13T09:33:42;97549.47;;;5.82;58.10
32197;BME280;18697;42.770;23.400;2023-02-13T09:36:13;97552.56;;;5.70;58.30
32197;BME280;18697;42.770;23.400;2023-02-13T09:38:40;97547.03;;;5.70;58.90
32197;BME280;18697;42.770;23.400;2023-02-13T09:43:47;97534.44;;;5.69;59.26
32197;BME280;18697;42.770;23.400;2023-02-13T09:46:18;97531.31;;;5.74;58.27
32197;BME280;18697;42.770;23.400;2023-02-13T09:48:48;97530.22;;;5.96;58.74
32197;BME280;18697;42.770;23.400;2023-02-13T09:51:19;97528.41;;;6.32;57.39
32197;BME280;18697;42.770;23.400;2023-02-13T09:53:52;97517.41;;;6.57;56.57
32197;BME280;18697;42.770;23.400;2023-02-13T10:02:01;97504.41;;;6.97;56.07
32197;BME280;18697;42.770;23.400;2023-02-13T10:07:32;97511.13;;;6.96;55.19
32197;BME280;18697;42.770;23.400;2023-02-13T10:10:01;97506.75;;;6.91;56.45
32197;BME280;18697;42.770;23.400;2023-02-13T10:15:23;97490.59;;;7.11;55.32
32197;BME280;18697;42.770;23.400;2023-02-13T10:18:00;97492.94;;;6.95;56.02
32197;BME280;18697;42.770;23.400;2023-02-13T10:20:49;97480.31;;;7.11;55.92
32197;BME280;18697;42.770;23.400;2023-02-13T10:23:36;97477.03;;;7.63;54.79
32197;BME280;18697;42.770;23.400;2023-02-13T10:26:11;97464.25;;;8.01;53.57
32197;BME280;18697;42.770;23.400;2023-02-13T10:28:47;97464.50;;;8.24;52.76
32197;BME280;18697;42.770;23.400;2023-02-13T10:31:33;97464.69;;;8.58;52.23
32197;BME280;18697;42.770;23.400;2023-02-13T10:34:01;97465.47;;;8.62;51.21
32197;BME280;18697;42.770;23.400;2023-02-13T10:36:30;97462.88;;;8.37;50.44
32197;BME280;18697;42.770;23.400;2023-02-13T10:39:23;97462.38;;;8.53;51.34
32197;BME280;18697;42.770;23.400;2023-02-13T10:42:03;97449.81;;;8.38;50.61
32197;BME280;18697;42.770;23.400;2023-02-13T10:55:27;97437.09;;;8.44;50.56
32197;BME280;18697;42.770;23.400;2023-02-13T10:58:26;97419.78;;;8.84;50.33
32197;BME280;18697;42.770;23.400;2023-02-13T11:00:58;97416.72;;;9.50;49.22
32197;BME280;18697;42.770;23.400;2023-02-13T11:03:28;97415.97;;;9.77;48.74
32197;BME280;18697;42.770;23.400;2023-02-13T11:05:55;97405.97;;;10.13;47.89
32197;BME280;18697;42.770;23.400;2023-02-13T11:08:29;97396.56;;;9.46;47.58
32197;BME280;18697;42.770;23.400;2023-02-13T11:10:56;97394.19;;;10.06;47.45
32197;BME280;18697;42.770;23.400;2023-02-13T11:13:24;97401.63;;;10.12;46.96
32197;BME280;18697;42.770;23.400;2023-02-13T11:16:05;97386.94;;;9.85;47.03
32197;BME280;18697;42.770;23.400;2023-02-13T11:18:34;97380.19;;;9.86;47.81
32197;BME280;18697;42.770;23.400;2023-02-13T11:21:09;97380.78;;;9.70;48.40
32197;BME280;18697;42.770;23.400;2023-02-13T11:23:44;97378.16;;;9.90;46.93
32197;BME280;18697;42.770;23.400;2023-02-13T11:26:11;97372.06;;;10.29;45.92
32197;BME280;18697;42.770;23.400;2023-02-13T11:28:46;97372.75;;;10.37;45.20
32197;BME280;18697;42.770;23.400;2023-02-13T11:31:18;97361.03;;;10.72;45.53
32197;BME280;18697;42.770;23.400;2023-02-13T11:33:45;97346.34;;;10.25;45.40
32197;BME280;18697;42.770;23.400;2023-02-13T11:36:21;97348.03;;;10.42;45.37
32197;BME280;18697;42.770;23.400;2023-02-13T11:41:29;97340.72;;;10.02;45.68
32197;BME280;18697;42.770;23.400;2023-02-13T11:43:57;97335.38;;;10.14;46.33
32197;BME280;18697;42.770;23.400;2023-02-13T11:46:30;97316.81;;;9.81;46.25
32197;BME280;18697;42.770;23.400;2023-02-13T11:49:16;97317.09;;;9.90;46.33
32197;BME280;18697;42.770;23.400;2023-02-13T11:51:45;97319.72;;;10.51;44.97
32197;BME280;18697;42.770;23.400;2023-02-13T11:54:25;97318.25;;;10.90;43.03
32197;BME280;18697;42.770;23.400;2023-02-13T11:56:55;97308.41;;;11.44;43.33
32197;BME280;18697;42.770;23.400;2023-02-13T11:59:25;97305.16;;;11.66;42.66
32197;BME280;18697;42.770;23.400;2023-02-13T12:02:12;97299.00;;;11.74;42.64
32197;BME280;18697;42.770;23.400;2023-02-13T12:04:41;97299.47;;;11.89;41.93
32197;BME280;18697;42.770;23.400;2023-02-13T12:07:20;97295.25;;;12.17;41.17
32197;BME280;18697;42.770;23.400;2023-02-13T12:09:59;97288.81;;;12.36;40.53
32197;BME280;18697;42.770;23.400;2023-02-13T12:12:31;97292.56;;;12.30;39.81
32197;BME280;18697;42.770;23.400;2023-02-13T12:15:01;97290.38;;;12.21;39.84
32197;BME280;18697;42.770;23.400;2023-02-13T12:17:28;97290.38;;;12.05;39.64
32197;BME280;18697;42.770;23.400;2023-02-13T12:19:55;97281.41;;;12.13;39.88
32197;BME280;18697;42.770;23.400;2023-02-13T12:44:47;97264.53;;;12.04;38.11
32197;BME280;18697;42.770;23.400;2023-02-13T12:58:05;97244.56;;;11.73;37.24
32197;BME280;18697;42.770;23.400;2023-02-13T13:19:48;97213.25;;;12.02;36.55
32197;BME280;18697;42.770;23.400;2023-02-13T13:22:31;97219.09;;;11.91;35.92
32197;BME280;18697;42.770;23.400;2023-02-13T13:27:42;97208.50;;;11.86;36.40
32197;BME280;18697;42.770;23.400;2023-02-13T13:30:19;97214.38;;;11.72;36.62
32197;BME280;18697;42.770;23.400;2023-02-13T13:33:35;97201.59;;;11.91;36.68
32197;BME280;18697;42.770;23.400;2023-02-13T13:35:38;97199.44;;;11.82;36.10
32197;BME280;18697;42.770;23.400;2023-02-13T13:38:52;97206.06;;;11.52;36.74
32197;BME280;18697;42.770;23.400;2023-02-13T13:41:28;97192.78;;;11.60;36.67
32197;BME280;18697;42.770;23.400;2023-02-13T13:45:02;97197.41;;;11.66;37.11
32197;BME280;18697;42.770;23.400;2023-02-13T13:46:56;97201.84;;;11.64;36.75
32197;BME280;18697;42.770;23.400;2023-02-13T13:49:41;97200.28;;;11.63;36.50
32197;BME280;18697;42.770;23.400;2023-02-13T13:52:18;97201.13;;;11.60;36.90
32197;BME280;18697;42.770;23.400;2023-02-13T13:54:44;97199.41;;;11.30;36.47
32197;BME280;18697;42.770;23.400;2023-02-13T13:57:16;97203.47;;;11.09;37.49
32197;BME280;18697;42.770;23.400;2023-02-13T14:05:20;97188.00;;;10.88;38.05
32197;BME280;18697;42.770;23.400;2023-02-13T14:07:46;97184.09;;;10.85;38.24
32197;BME280;18697;42.770;23.400;2023-02-13T14:31:36;97168.47;;;11.11;38.54
32197;BME280;18697;42.770;23.400;2023-02-13T14:34:15;97161.56;;;11.16;38.41
32197;BME280;18697;42.770;23.400;2023-02-13T14:36:46;97163.13;;;11.17;38.78
32197;BME280;18697;42.770;23.400;2023-02-13T14:44:23;97156.94;;;10.93;38.96
32197;BME280;18697;42.770;23.400;2023-02-13T14:46:50;97167.34;;;10.89;39.20
32197;BME280;18697;42.770;23.400;2023-02-13T14:49:18;97174.91;;;10.89;39.21
32197;BME280;18697;42.770;23.400;2023-02-13T14:51:54;97166.41;;;10.56;39.66
32197;BME280;18697;42.770;23.400;2023-02-13T14:54:35;97166.69;;;10.42;39.87
32197;BME280;18697;42.770;23.400;2023-02-13T14:57:10;97147.69;;;10.17;40.26
32197;BME280;18697;42.770;23.400;2023-02-13T14:59:40;97163.34;;;9.84;40.76
32197;BME280;18697;42.770;23.400;2023-02-13T15:02:20;97150.75;;;9.56;41.47
32197;BME280;18697;42.770;23.400;2023-02-13T15:04:52;97155.19;;;9.50;41.49
32197;BME280;18697;42.770;23.400;2023-02-13T15:07:26;97146.56;;;9.44;42.15
32197;BME280;18697;42.770;23.400;2023-02-13T15:09:59;97150.28;;;9.34;42.39
32197;BME280;18697;42.770;23.400;2023-02-13T15:12:26;97157.09;;;9.30;42.46
32197;BME280;18697;42.770;23.400;2023-02-13T15:14:52;97158.50;;;9.14;42.75
32197;BME280;18697;42.770;23.400;2023-02-13T15:17:21;97159.47;;;9.01;42.96
32197;BME280;18697;42.770;23.400;2023-02-13T15:19:50;97151.75;;;8.88;43.28
32197;BME280;18697;42.770;23.400;2023-02-13T15:22:31;97157.09;;;8.72;43.79
32197;BME280;18697;42.770;23.400;2023-02-13T15:24:57;97155.97;;;8.66;44.09
32197;BME280;18697;42.770;23.400;2023-02-13T15:27:28;97158.47;;;8.57;44.39
32197;BME280;18697;42.770;23.400;2023-02-13T15:30:00;97156.22;;;8.45;44.63
32197;BME280;18697;42.770;23.400;2023-02-13T15:32:34;97155.84;;;8.43;44.62
32197;BME280;18697;42.770;23.400;2023-02-13T15:35:25;97161.09;;;8.30;45.05
32197;BME280;18697;42.770;23.400;2023-02-13T15:37:51;97166.03;;;8.15;45.42
32197;BME280;18697;42.770;23.400;2023-02-13T15:42:49;97162.34;;;7.88;46.03
32197;BME280;18697;42.770;23.400;2023-02-13T15:45:16;97160.06;;;7.76;46.49